Time;durP1;ratioP1;P1;durP2;ratioP2;P2;SDS_P1;SDS_P2;PMS_P1;PMS_P2;Temp;Humidity;BMP_temperature;BMP_pressure;BME280_temperature;BME280_humidity;BME280_pressure;Samples;Min_cycle;Max_cycle;Signal;HPM_P1;HPM_P2
2023/09/27 00:00:49;;;;;;;32.70;23.10;;;;;;;17.67;89.90;101424.00;109008;277;39919;-72
2023/09/27 00:03:42;;;;;;;28.60;22.80;;;;;;;17.66;89.93;101420.93;109034;277;38248;-73
2023/09/27 00:06:21;;;;;;;28.80;22.70;;;;;;;17.67;90.02;101420.69;108902;277;38212;-72
2023/09/27 00:08:55;;;;;;;31.20;23.30;;;;;;;17.67;90.00;101420.16;108958;277;38182;-71
2023/09/27 00:11:30;;;;;;;30.40;24.40;;;;;;;17.67;89.76;101420.67;108952;277;38149;-73
2023/09/27 00:14:07;;;;;;;30.00;22.10;;;;;;;17.64;89.39;101418.52;108976;277;38134;-75
2023/09/27 00:16:41;;;;;;;27.00;21.80;;;;;;;17.62;89.46;101421.98;108909;277;38998;-72
2023/09/27 00:19:15;;;;;;;30.60;21.70;;;;;;;17.61;89.37;101424.15;108938;277;38933;-74
2023/09/27 00:21:49;;;;;;;26.80;22.00;;;;;;;17.60;89.18;101422.46;108866;277;41570;-74
2023/09/27 00:24:23;;;;;;;25.80;21.70;;;;;;;17.57;89.13;101421.52;108947;277;39812;-74
2023/09/27 00:27:04;;;;;;;27.70;23.20;;;;;;;17.51;88.95;101421.27;108980;277;38871;-72
2023/09/27 00:29:38;;;;;;;26.10;20.60;;;;;;;17.47;88.88;101419.05;108991;277;38513;-74
2023/09/27 00:32:12;;;;;;;29.60;21.00;;;;;;;17.41;88.78;101415.80;109000;277;38814;-72
2023/09/27 00:34:46;;;;;;;26.40;20.40;;;;;;;17.39;89.06;101407.80;109044;277;38562;-71
2023/09/27 00:37:20;;;;;;;24.40;21.40;;;;;;;17.38;88.98;101408.02;109048;277;38466;-71
2023/09/27 00:39:55;;;;;;;23.20;20.70;;;;;;;17.35;88.92;101406.41;109046;277;38475;-72
2023/09/27 00:42:34;;;;;;;26.60;22.10;;;;;;;17.31;88.77;101405.36;109048;277;38298;-74
2023/09/27 00:45:10;;;;;;;26.40;20.30;;;;;;;17.27;88.82;101406.10;108976;277;39431;-73
2023/09/27 00:47:47;;;;;;;24.40;19.30;;;;;;;17.22;88.77;101402.98;108892;277;174998;-72
2023/09/27 00:50:24;;;;;;;27.20;20.10;;;;;;;17.18;88.97;101406.73;108841;277;175140;-72
2023/09/27 00:53:00;;;;;;;24.20;20.00;;;;;;;17.17;89.13;101402.89;108979;277;39867;-73
2023/09/27 00:55:37;;;;;;;27.40;20.40;;;;;;;17.17;89.15;101402.02;109046;277;39374;-72
2023/09/27 00:58:11;;;;;;;25.20;20.00;;;;;;;17.14;89.27;101401.45;108936;277;38627;-72
2023/09/27 01:00:45;;;;;;;25.60;18.90;;;;;;;17.12;89.21;101393.77;108956;277;38228;-72
2023/09/27 01:03:19;;;;;;;22.80;19.20;;;;;;;17.09;89.13;101393.04;108957;277;38179;-71
2023/09/27 01:05:54;;;;;;;24.00;19.50;;;;;;;17.07;88.98;101390.70;109028;277;38431;-71
2023/09/27 01:08:28;;;;;;;23.60;19.80;;;;;;;17.04;88.93;101392.77;108978;277;39632;-71
2023/09/27 01:11:01;;;;;;;23.30;20.40;;;;;;;16.98;89.03;101390.05;109002;277;38468;-72
2023/09/27 01:13:37;;;;;;;23.00;19.40;;;;;;;16.96;89.14;101390.50;108964;276;38222;-74
2023/09/27 01:16:10;;;;;;;24.20;19.00;;;;;;;16.95;89.17;101389.84;109003;276;38643;-71
2023/09/27 01:18:45;;;;;;;30.40;19.10;;;;;;;16.93;89.36;101385.02;109005;276;39482;-71
2023/09/27 01:21:22;;;;;;;30.20;20.00;;;;;;;16.92;89.57;101384.35;109028;276;39023;-72
2023/09/27 01:23:59;;;;;;;23.60;19.00;;;;;;;16.88;89.39;101387.38;108350;277;911890;-74
2023/09/27 01:26:33;;;;;;;25.50;18.80;;;;;;;16.84;89.23;101385.79;109022;276;39647;-71
2023/09/27 01:29:11;;;;;;;24.10;20.00;;;;;;;16.81;89.56;101384.70;109069;277;38585;-71
2023/09/27 01:31:49;;;;;;;24.30;21.00;;;;;;;16.80;90.00;101384.04;109022;276;39441;-74
2023/09/27 01:34:27;;;;;;;26.80;21.10;;;;;;;16.83;90.42;101382.17;108946;277;38286;-74
2023/09/27 01:37:03;;;;;;;25.40;20.40;;;;;;;16.83;90.63;101378.80;109016;277;38149;-73
2023/09/27 01:39:38;;;;;;;24.80;19.80;;;;;;;16.83;90.59;101379.67;108997;277;38219;-73
2023/09/27 01:42:12;;;;;;;26.10;20.70;;;;;;;16.84;90.66;101377.67;109007;277;39636;-72
2023/09/27 01:44:46;;;;;;;25.10;20.10;;;;;;;16.84;90.54;101376.82;109020;277;38250;-74
2023/09/27 01:47:20;;;;;;;24.00;20.70;;;;;;;16.83;90.60;101378.77;109041;277;39052;-71
2023/09/27 01:49:54;;;;;;;24.90;19.90;;;;;;;16.83;90.93;101380.20;109030;277;39284;-73
2023/09/27 01:52:30;;;;;;;25.00;19.60;;;;;;;16.85;90.91;101375.89;108991;277;38379;-74
2023/09/27 01:55:09;;;;;;;24.50;20.40;;;;;;;16.85;90.88;101373.77;109030;276;38146;-72
2023/09/27 01:57:45;;;;;;;26.10;20.40;;;;;;;16.81;90.59;101376.42;108976;276;38700;-72
2023/09/27 02:00:21;;;;;;;24.90;19.10;;;;;;;16.76;90.18;101378.45;108991;277;38303;-72
2023/09/27 02:03:01;;;;;;;21.60;19.10;;;;;;;16.66;89.94;101376.61;108976;277;38572;-72
2023/09/27 02:05:37;;;;;;;24.70;19.10;;;;;;;16.56;89.78;101377.77;109001;276;39335;-73
2023/09/27 02:08:15;;;;;;;25.00;20.80;;;;;;;16.47;90.00;101372.88;108384;277;898336;-72
2023/09/27 02:10:51;;;;;;;20.40;18.00;;;;;;;16.42;90.26;101374.55;108990;276;39213;-72
2023/09/27 02:13:25;;;;;;;23.50;19.10;;;;;;;16.35;90.01;101369.75;109063;276;39890;-72
2023/09/27 02:16:00;;;;;;;19.90;17.70;;;;;;;16.27;89.98;101370.80;108943;277;38196;-72
2023/09/27 02:18:34;;;;;;;22.60;18.90;;;;;;;16.19;89.96;101368.74;108975;273;38174;-72
2023/09/27 02:21:08;;;;;;;19.70;17.40;;;;;;;16.13;90.12;101368.30;109003;276;39466;-71
2023/09/27 02:23:43;;;;;;;21.20;18.30;;;;;;;16.05;89.81;101371.64;108943;277;38708;-72
2023/09/27 02:26:18;;;;;;;20.20;16.60;;;;;;;15.96;89.88;101371.83;108892;276;172380;-72
2023/09/27 02:28:52;;;;;;;25.70;17.20;;;;;;;15.92;90.23;101369.95;108991;276;38903;-75
2023/09/27 02:31:26;;;;;;;20.90;18.00;;;;;;;15.87;89.97;101368.06;108974;276;38965;-71
2023/09/27 02:34:01;;;;;;;21.20;18.50;;;;;;;15.80;90.00;101369.77;108963;277;38245;-72
2023/09/27 02:36:35;;;;;;;22.30;19.30;;;;;;;15.75;90.19;101362.59;109033;277;38154;-72
2023/09/27 02:39:10;;;;;;;19.50;17.40;;;;;;;15.69;90.06;101362.17;108985;277;38238;-73
2023/09/27 02:41:44;;;;;;;23.50;19.10;;;;;;;15.63;90.37;101362.40;108964;277;38741;-72
2023/09/27 02:44:23;;;;;;;21.40;16.30;;;;;;;15.59;90.32;101366.07;108945;276;39334;-72
2023/09/27 02:46:57;;;;;;;19.90;17.60;;;;;;;15.54;89.91;101363.31;109033;276;38653;-73
2023/09/27 02:49:31;;;;;;;20.90;17.80;;;;;;;15.46;89.66;101363.27;108955;277;39357;-71
2023/09/27 02:52:09;;;;;;;19.90;16.70;;;;;;;15.36;89.47;101360.88;108988;276;38733;-72
2023/09/27 02:54:45;;;;;;;20.20;17.10;;;;;;;15.25;89.18;101361.17;108859;276;174779;-71
2023/09/27 02:57:20;;;;;;;24.00;16.00;;;;;;;15.17;89.57;101364.15;108612;277;586564;-72
2023/09/27 02:59:55;;;;;;;21.20;17.10;;;;;;;15.14;90.03;101367.25;109045;277;38195;-72
2023/09/27 03:02:31;;;;;;;22.10;18.30;;;;;;;15.10;90.16;101367.59;108983;277;39441;-72
2023/09/27 03:05:06;;;;;;;21.60;18.40;;;;;;;15.08;90.72;101368.75;109041;277;39389;-73
2023/09/27 03:07:45;;;;;;;20.80;17.40;;;;;;;15.05;90.67;101368.52;109018;277;38449;-72
2023/09/27 03:10:23;;;;;;;22.70;17.20;;;;;;;15.00;90.72;101368.70;108993;277;38563;-74
2023/09/27 03:12:59;;;;;;;24.60;17.60;;;;;;;14.97;90.79;101372.70;108913;276;38264;-72
2023/09/27 03:15:34;;;;;;;23.80;18.10;;;;;;;14.95;90.76;101372.77;109023;277;39852;-72
2023/09/27 03:18:13;;;;;;;20.00;17.30;;;;;;;14.89;90.67;101376.52;108934;277;38771;-73
2023/09/27 03:20:51;;;;;;;23.20;18.60;;;;;;;14.82;90.73;101379.24;108968;277;38186;-74
2023/09/27 03:23:30;;;;;;;23.10;17.50;;;;;;;14.76;90.75;101378.80;108947;277;38379;-74
2023/09/27 03:26:04;;;;;;;21.70;17.20;;;;;;;14.71;90.74;101378.48;108952;277;38217;-73
2023/09/27 03:28:38;;;;;;;21.90;18.60;;;;;;;14.68;90.84;101374.73;108976;277;38312;-71
2023/09/27 03:31:12;;;;;;;21.80;17.40;;;;;;;14.65;90.89;101373.45;108952;277;38768;-73
2023/09/27 03:33:46;;;;;;;21.70;16.90;;;;;;;14.62;90.67;101374.63;108979;276;38498;-73
2023/09/27 03:36:20;;;;;;;22.80;17.30;;;;;;;14.56;90.52;101372.21;108957;276;38296;-74
2023/09/27 03:38:54;;;;;;;22.30;17.30;;;;;;;14.51;90.47;101374.49;108954;277;38148;-73
2023/09/27 03:41:28;;;;;;;22.50;17.20;;;;;;;14.44;90.29;101374.55;109002;277;38182;-72
2023/09/27 03:44:02;;;;;;;23.20;17.70;;;;;;;14.40;90.23;101373.14;108925;277;38698;-72
2023/09/27 03:46:39;;;;;;;21.40;17.90;;;;;;;14.36;90.47;101374.50;108983;277;38426;-74
2023/09/27 03:49:15;;;;;;;21.40;17.60;;;;;;;14.29;90.15;101374.43;109026;277;38160;-72
2023/09/27 03:51:50;;;;;;;20.20;16.50;;;;;;;14.22;90.25;101372.78;108967;277;39219;-73
2023/09/27 03:54:29;;;;;;;19.20;17.00;;;;;;;14.16;90.26;101373.35;108265;277;899134;-74
2023/09/27 03:57:02;;;;;;;20.60;17.10;;;;;;;14.09;90.33;101369.73;108991;277;38714;-73
2023/09/27 03:59:40;;;;;;;19.70;17.30;;;;;;;14.04;90.31;101372.55;108967;277;38433;-74
2023/09/27 04:02:16;;;;;;;19.10;16.20;;;;;;;14.00;90.32;101372.01;108966;277;38193;-71
2023/09/27 04:04:51;;;;;;;19.20;16.20;;;;;;;13.95;90.33;101374.45;108937;277;38636;-71
2023/09/27 04:07:27;;;;;;;20.30;16.30;;;;;;;13.91;90.11;101371.27;108937;276;38675;-74
2023/09/27 04:10:09;;;;;;;24.50;16.80;;;;;;;13.86;90.28;101370.91;108986;277;38787;-74
2023/09/27 04:12:43;;;;;;;19.10;15.70;;;;;;;13.82;90.43;101371.39;109019;276;39329;-71
2023/09/27 04:15:17;;;;;;;17.30;15.50;;;;;;;13.79;90.43;101373.10;108987;277;38501;-72
2023/09/27 04:17:53;;;;;;;19.80;15.20;;;;;;;13.75;90.40;101376.94;108981;277;40938;-73
2023/09/27 04:20:27;;;;;;;16.60;14.90;;;;;;;13.68;90.35;101375.61;108963;277;38944;-73
2023/09/27 04:23:03;;;;;;;18.10;15.90;;;;;;;13.64;90.45;101382.91;109007;277;38601;-73
2023/09/27 04:25:37;;;;;;;16.30;14.60;;;;;;;13.61;90.65;101378.09;108948;277;38853;-72
2023/09/27 04:28:14;;;;;;;16.30;14.60;;;;;;;13.57;90.70;101375.79;108982;276;38148;-74
2023/09/27 04:30:48;;;;;;;16.60;14.50;;;;;;;13.56;91.13;101382.84;109031;277;38389;-71
2023/09/27 04:33:23;;;;;;;16.70;14.30;;;;;;;13.53;90.88;101382.60;109011;277;38290;-72
2023/09/27 04:36:01;;;;;;;15.60;14.00;;;;;;;13.49;91.07;101381.17;109018;276;38401;-71
2023/09/27 04:38:35;;;;;;;17.20;15.20;;;;;;;13.48;91.37;101381.01;108936;277;38805;-73
2023/09/27 04:41:12;;;;;;;16.20;14.50;;;;;;;13.49;91.94;101380.45;109033;277;38243;-71
2023/09/27 04:43:46;;;;;;;17.40;13.90;;;;;;;13.52;92.44;101382.80;108993;276;38713;-72
2023/09/27 04:46:23;;;;;;;18.70;15.00;;;;;;;13.56;92.71;101380.38;109004;277;38738;-71
2023/09/27 04:48:58;;;;;;;19.70;16.00;;;;;;;13.60;92.95;101377.45;108968;277;38219;-72
2023/09/27 04:51:35;;;;;;;18.50;16.50;;;;;;;13.65;93.24;101373.08;108989;277;38351;-74
2023/09/27 04:54:10;;;;;;;19.30;16.10;;;;;;;13.69;93.41;101375.73;108840;276;175242;-71
2023/09/27 04:56:44;;;;;;;18.50;16.50;;;;;;;13.76;94.02;101375.67;108992;277;38503;-72
2023/09/27 04:59:19;;;;;;;22.40;16.90;;;;;;;13.83;94.35;101378.20;108872;277;176921;-74
2023/09/27 05:01:54;;;;;;;19.80;17.60;;;;;;;13.93;95.60;101381.17;109005;277;38434;-73
2023/09/27 05:04:28;;;;;;;24.10;17.90;;;;;;;14.10;96.46;101381.11;108969;276;38217;-72
2023/09/27 05:07:03;;;;;;;23.70;18.10;;;;;;;14.23;96.90;101382.54;109010;277;39674;-74
2023/09/27 05:09:37;;;;;;;22.60;17.30;;;;;;;14.36;97.17;101384.16;108918;277;38435;-74
2023/09/27 05:12:14;;;;;;;25.00;18.00;;;;;;;14.48;97.10;101387.79;108992;276;38260;-72
2023/09/27 05:14:49;;;;;;;21.30;17.90;;;;;;;14.59;97.27;101388.27;109053;277;38946;-72
2023/09/27 05:17:25;;;;;;;23.50;17.90;;;;;;;14.70;97.72;101392.04;109010;277;38852;-71
2023/09/27 05:20:00;;;;;;;22.30;17.50;;;;;;;14.83;97.88;101390.30;109031;276;39597;-71
2023/09/27 05:22:35;;;;;;;25.80;18.90;;;;;;;14.96;98.05;101390.64;109027;277;38170;-73
2023/09/27 05:25:13;;;;;;;26.40;19.50;;;;;;;15.08;97.96;101393.52;109004;276;39396;-73
2023/09/27 05:27:47;;;;;;;22.80;19.10;;;;;;;15.19;97.90;101398.52;109011;276;38521;-72
2023/09/27 05:30:23;;;;;;;23.60;17.70;;;;;;;15.29;97.90;101399.00;109029;276;39712;-70
2023/09/27 05:32:58;;;;;;;23.40;18.80;;;;;;;15.40;98.34;101396.79;109068;277;38329;-72
2023/09/27 05:35:37;;;;;;;21.70;18.60;;;;;;;15.53;98.54;101393.58;109062;276;38179;-70
2023/09/27 05:38:18;;;;;;;23.80;19.80;;;;;;;15.76;99.12;101398.09;109002;276;38326;-72
2023/09/27 05:40:55;;;;;;;26.80;19.50;;;;;;;16.30;100.00;101393.73;108899;276;175115;-72
2023/09/27 05:43:29;;;;;;;26.20;19.70;;;;;;;16.75;100.00;101396.61;108985;276;39346;-74
2023/09/27 05:46:07;;;;;;;23.70;19.40;;;;;;;17.08;99.58;101396.10;108998;276;38222;-71
2023/09/27 05:48:42;;;;;;;23.30;18.80;;;;;;;17.29;98.06;101399.29;108998;277;38461;-73
2023/09/27 05:51:17;;;;;;;24.90;19.20;;;;;;;17.46;97.02;101396.50;108965;277;38384;-74
2023/09/27 05:53:55;;;;;;;25.90;20.00;;;;;;;17.69;96.72;101392.66;108984;276;38176;-72
2023/09/27 05:56:33;;;;;;;27.40;19.50;;;;;;;17.81;95.16;101394.20;108991;276;38214;-74
2023/09/27 05:59:11;;;;;;;23.00;19.40;;;;;;;17.88;94.92;101393.67;109017;277;38287;-72
2023/09/27 06:01:47;;;;;;;21.10;17.60;;;;;;;17.88;93.98;101393.84;108968;277;39282;-71
2023/09/27 06:04:25;;;;;;;22.80;18.30;;;;;;;17.90;92.69;101397.47;108954;277;39621;-72
2023/09/27 06:07:01;;;;;;;26.70;19.60;;;;;;;17.92;92.00;101398.05;109014;277;39228;-75
2023/09/27 06:09:35;;;;;;;24.70;19.70;;;;;;;17.94;91.51;101399.18;109000;277;38217;-73
2023/09/27 06:12:19;;;;;;;27.80;18.90;;;;;;;17.96;90.88;101398.91;108983;277;38751;-73
2023/09/27 06:14:53;;;;;;;24.40;19.80;;;;;;;17.97;90.68;101402.71;109010;276;38206;-72
2023/09/27 06:17:30;;;;;;;24.70;18.60;;;;;;;17.98;90.57;101402.65;109062;276;38296;-74
2023/09/27 06:20:19;;;;;;;27.30;19.60;;;;;;;18.00;90.40;101406.11;109013;276;38163;-74
2023/09/27 06:22:57;;;;;;;23.30;19.90;;;;;;;18.04;90.29;101403.79;108978;276;38268;-74
2023/09/27 06:25:35;;;;;;;23.10;18.70;;;;;;;18.07;90.07;101404.83;109037;276;38380;-74
2023/09/27 06:28:13;;;;;;;22.80;17.80;;;;;;;18.13;89.79;101412.16;109060;277;38183;-73
2023/09/27 06:30:47;;;;;;;21.70;17.60;;;;;;;18.16;89.15;101414.42;109001;269;38242;-74
2023/09/27 06:33:21;;;;;;;25.70;18.90;;;;;;;18.20;89.06;101415.98;108953;276;38135;-74
2023/09/27 06:35:56;;;;;;;22.90;19.20;;;;;;;18.25;88.68;101416.81;108973;276;39322;-75
2023/09/27 06:38:30;;;;;;;21.10;18.10;;;;;;;18.28;88.67;101411.49;108932;276;38191;-75
2023/09/27 06:41:08;;;;;;;23.20;18.00;;;;;;;18.33;88.44;101411.80;108966;277;38289;-72
2023/09/27 06:43:46;;;;;;;23.30;18.50;;;;;;;18.40;88.11;101412.46;109010;276;38343;-72
2023/09/27 06:46:22;;;;;;;26.50;17.80;;;;;;;18.48;88.01;101416.80;108989;276;38333;-74
2023/09/27 06:48:59;;;;;;;22.80;18.40;;;;;;;18.56;88.00;101415.81;108960;276;38678;-74
2023/09/27 06:51:34;;;;;;;24.40;18.70;;;;;;;18.63;87.74;101420.08;108947;276;38515;-73
2023/09/27 06:54:10;;;;;;;24.60;18.40;;;;;;;18.68;87.43;101417.45;108880;277;40542;-73
2023/09/27 06:56:45;;;;;;;23.50;17.50;;;;;;;18.79;86.88;101419.91;109024;277;38164;-75
2023/09/27 06:59:19;;;;;;;24.80;18.90;;;;;;;18.87;86.42;101418.75;109051;276;38182;-75
2023/09/27 07:01:55;;;;;;;21.20;18.10;;;;;;;18.94;85.75;101417.45;108991;277;39345;-73
2023/09/27 07:04:30;;;;;;;22.10;17.50;;;;;;;18.96;85.11;101420.91;108836;276;174599;-74
2023/09/27 07:07:06;;;;;;;21.70;17.20;;;;;;;19.01;85.15;101420.05;108957;276;38183;-73
2023/09/27 07:09:47;;;;;;;23.40;17.60;;;;;;;19.10;84.62;101415.67;108950;277;39312;-73
2023/09/27 07:12:21;;;;;;;25.40;18.80;;;;;;;19.16;84.26;101419.91;109002;277;38302;-72
2023/09/27 07:14:56;;;;;;;25.40;19.50;;;;;;;19.25;83.91;101417.81;109063;277;38162;-72
2023/09/27 07:17:36;;;;;;;25.50;19.10;;;;;;;19.33;83.29;101417.52;108998;277;38186;-73
2023/09/27 07:20:21;;;;;;;29.40;19.10;;;;;;;19.38;82.76;101421.13;108938;276;39168;-74
2023/09/27 07:22:58;;;;;;;26.40;17.80;;;;;;;19.49;83.15;101424.52;108923;277;38282;-73
2023/09/27 07:25:35;;;;;;;25.30;17.90;;;;;;;19.63;82.35;101425.90;108957;277;38504;-74
2023/09/27 07:28:11;;;;;;;39.50;20.60;;;;;;;19.74;81.94;101427.86;108927;277;38884;-75
2023/09/27 07:30:47;;;;;;;48.40;20.90;;;;;;;19.85;81.32;101428.65;108982;277;39322;-72
2023/09/27 07:33:21;;;;;;;22.10;17.90;;;;;;;19.92;80.71;101434.45;108983;277;38161;-72
2023/09/27 07:36:00;;;;;;;23.20;17.30;;;;;;;19.99;80.79;101437.01;108949;277;38154;-73
2023/09/27 07:38:33;;;;;;;;;;;;;;;20.07;80.21;101438.78;109027;276;39785;-75
2023/09/27 07:41:10;;;;;;;23.80;18.10;;;;;;;20.13;80.58;101435.98;109028;277;38186;-75
2023/09/27 07:43:48;;;;;;;23.80;16.70;;;;;;;20.26;80.71;101438.36;108989;277;38176;-73
2023/09/27 07:46:26;;;;;;;26.10;16.60;;;;;;;20.47;79.85;101438.67;109069;277;38956;-75
2023/09/27 07:49:01;;;;;;;20.50;16.30;;;;;;;20.73;79.68;101441.30;108993;277;38195;-74
2023/09/27 07:51:36;;;;;;;25.00;16.60;;;;;;;21.04;78.72;101446.95;108985;277;38312;-75
2023/09/27 07:54:18;;;;;;;24.00;17.20;;;;;;;21.40;77.93;101446.00;109020;276;38147;-73
2023/09/27 07:56:56;;;;;;;20.70;16.20;;;;;;;21.87;78.08;101447.11;108997;276;39321;-75
2023/09/27 07:59:31;;;;;;;21.00;15.70;;;;;;;22.50;77.69;101444.92;108999;276;38623;-74
2023/09/27 08:02:09;;;;;;;19.20;15.60;;;;;;;23.18;75.77;101445.70;109035;276;38355;-75
2023/09/27 08:04:43;;;;;;;19.60;15.50;;;;;;;23.87;72.76;101446.38;108978;277;39899;-77
2023/09/27 08:07:21;;;;;;;28.60;16.20;;;;;;;24.56;70.62;101449.71;109047;277;39349;-77
2023/09/27 08:09:55;;;;;;;22.80;14.80;;;;;;;25.24;67.14;101451.01;108977;277;39716;-75
2023/09/27 08:12:33;;;;;;;17.30;14.20;;;;;;;25.71;64.57;101448.70;109005;277;39491;-73
2023/09/27 08:15:12;;;;;;;17.20;14.60;;;;;;;26.08;63.62;101447.18;108955;277;39388;-75
2023/09/27 08:17:52;;;;;;;18.00;14.50;;;;;;;26.27;61.82;101448.01;108999;277;39392;-74
2023/09/27 08:20:29;;;;;;;19.90;14.90;;;;;;;26.37;60.62;101451.73;109011;277;38744;-76
2023/09/27 08:23:04;;;;;;;20.10;15.00;;;;;;;26.44;59.98;101449.14;109038;277;38160;-76
2023/09/27 08:25:40;;;;;;;17.10;14.40;;;;;;;26.42;59.04;101454.36;108991;276;38159;-74
2023/09/27 08:28:17;;;;;;;17.10;14.20;;;;;;;26.35;58.91;101453.67;108987;277;38424;-77
2023/09/27 08:30:53;;;;;;;22.60;14.70;;;;;;;26.34;57.72;101454.68;108990;277;38262;-80
2023/09/27 08:33:30;;;;;;;23.40;15.00;;;;;;;26.25;57.73;101455.29;108989;277;38317;-83
2023/09/27 08:36:12;;;;;;;15.80;13.20;;;;;;;26.28;57.72;101453.79;108978;276;38469;-75
2023/09/27 08:38:48;;;;;;;16.10;13.80;;;;;;;26.23;57.73;101457.11;109010;276;39505;-73
2023/09/27 08:41:25;;;;;;;18.30;14.00;;;;;;;26.06;56.91;101459.09;108974;276;38167;-74
2023/09/27 08:44:02;;;;;;;17.30;14.50;;;;;;;25.87;56.81;101459.50;108954;277;38947;-75
2023/09/27 08:46:39;;;;;;;17.30;13.70;;;;;;;25.87;57.00;101461.84;108938;277;38143;-77
2023/09/27 08:49:14;;;;;;;20.90;14.60;;;;;;;25.89;57.28;101461.29;108985;277;38155;-74
2023/09/27 08:51:52;;;;;;;20.70;14.20;;;;;;;25.89;57.23;101459.46;108990;277;39737;-74
2023/09/27 08:54:28;;;;;;;22.50;14.40;;;;;;;25.81;57.24;101456.09;108959;277;38125;-72
2023/09/27 08:57:03;;;;;;;19.70;14.00;;;;;;;25.66;56.94;101452.99;108936;277;40265;-85
2023/09/27 08:59:38;;;;;;;22.60;13.80;;;;;;;25.49;57.30;101452.48;108996;276;38609;-79
2023/09/27 09:02:15;;;;;;;17.90;13.70;;;;;;;25.37;57.85;101452.40;109022;277;38163;-75
2023/09/27 09:04:49;;;;;;;22.20;15.10;;;;;;;25.29;58.43;101451.45;109030;277;38376;-78
2023/09/27 09:07:23;;;;;;;19.00;15.10;;;;;;;25.26;58.43;101449.02;108990;276;39319;-74
2023/09/27 09:10:00;;;;;;;21.90;14.30;;;;;;;25.20;58.64;101445.57;109000;277;38486;-75
2023/09/27 09:12:35;;;;;;;18.80;15.00;;;;;;;25.20;59.35;101446.68;108948;277;38498;-75
2023/09/27 09:15:14;;;;;;;19.30;14.30;;;;;;;25.21;58.04;101449.13;108974;277;38758;-75
2023/09/27 09:17:52;;;;;;;16.60;13.80;;;;;;;25.24;58.53;101452.11;109016;277;38198;-78
2023/09/27 09:20:48;;;;;;;19.20;13.90;;;;;;;25.37;58.62;101450.84;108957;277;38383;-75
2023/09/27 09:23:36;;;;;;;16.50;13.70;;;;;;;25.77;58.62;101444.79;108942;276;38483;-77
2023/09/27 09:26:11;;;;;;;18.30;13.60;;;;;;;26.29;57.97;101442.41;108989;277;38151;-79
2023/09/27 09:28:59;;;;;;;15.00;12.30;;;;;;;26.89;57.59;101442.52;109050;277;39620;-78
2023/09/27 09:31:33;;;;;;;14.70;13.20;;;;;;;27.55;56.63;101440.41;108977;276;38165;-76
2023/09/27 09:34:09;;;;;;;13.10;11.40;;;;;;;28.12;54.38;101441.57;108942;277;39819;-74
2023/09/27 09:36:43;;;;;;;13.00;11.30;;;;;;;28.68;54.26;101441.17;108943;277;38434;-77
2023/09/27 09:39:19;;;;;;;16.50;11.90;;;;;;;29.25;52.84;101441.05;108946;276;38554;-81
2023/09/27 09:42:00;;;;;;;18.50;11.70;;;;;;;29.75;50.95;101440.53;109010;277;38314;-75
2023/09/27 09:44:35;;;;;;;13.30;11.80;;;;;;;30.11;49.83;101441.02;108229;277;883198;-74
2023/09/27 09:47:17;;;;;;;14.30;11.00;;;;;;;30.24;48.06;101437.80;108961;277;38924;-79
2023/09/27 09:49:52;;;;;;;14.80;11.60;;;;;;;30.15;47.61;101446.54;109000;276;38497;-76
2023/09/27 09:52:35;;;;;;;14.80;11.20;;;;;;;29.92;46.71;101447.22;108939;276;38368;-75
2023/09/27 09:55:10;;;;;;;;;;;;;;;29.56;47.58;101444.44;108973;276;39405;-77
2023/09/27 09:57:45;;;;;;;17.20;11.50;;;;;;;29.23;47.01;101445.44;108990;276;38785;-79
2023/09/27 10:00:25;;;;;;;16.20;11.90;;;;;;;28.82;46.83;101441.02;109026;276;38198;-75
2023/09/27 10:03:04;;;;;;;17.80;11.90;;;;;;;28.44;47.33;101441.14;109015;277;39332;-75
2023/09/27 10:05:40;;;;;;;15.30;11.50;;;;;;;28.13;47.56;101436.80;109012;277;39341;-77
2023/09/27 10:08:16;;;;;;;14.30;10.90;;;;;;;27.87;48.10;101442.62;109014;277;38558;-77
2023/09/27 10:10:50;;;;;;;15.50;11.60;;;;;;;27.65;48.36;101443.75;108895;277;39731;-75
2023/09/27 10:13:25;;;;;;;15.00;11.40;;;;;;;27.44;48.91;101442.36;109015;277;38609;-76
2023/09/27 10:15:59;;;;;;;16.20;11.00;;;;;;;27.25;49.13;101440.89;108941;276;38713;-76
2023/09/27 10:18:39;;;;;;;19.50;11.40;;;;;;;27.10;49.23;101439.16;109012;276;38508;-75
2023/09/27 10:21:16;;;;;;;18.70;11.50;;;;;;;26.96;49.98;101431.98;109007;276;38252;-75
2023/09/27 10:24:07;;;;;;;16.30;11.80;;;;;;;26.87;50.95;101439.27;108910;276;174544;-75
2023/09/27 10:26:42;;;;;;;18.70;13.00;;;;;;;26.82;50.67;101440.31;109007;276;38022;-73
2023/09/27 10:29:18;;;;;;;18.20;12.00;;;;;;;26.66;50.63;101437.38;109007;277;39857;-74
2023/09/27 10:32:27;;;;;;;17.10;12.00;;;;;;;26.57;51.69;101439.64;108989;277;174581;-75
2023/09/27 10:35:21;;;;;;;22.60;11.70;;;;;;;26.53;51.70;101434.45;108973;276;38437;-75
2023/09/27 10:38:09;;;;;;;15.00;10.80;;;;;;;26.52;52.36;101432.19;108928;276;39047;-76
2023/09/27 10:40:47;;;;;;;22.70;10.50;;;;;;;26.52;51.93;101426.27;108989;276;38602;-74
2023/09/27 10:43:47;;;;;;;14.60;10.40;;;;;;;26.49;51.32;101431.06;108961;276;38284;-75
2023/09/27 10:46:21;;;;;;;16.80;10.80;;;;;;;26.44;51.05;101430.39;108949;276;38129;-77
2023/09/27 10:48:59;;;;;;;15.80;10.60;;;;;;;26.40;51.46;101428.23;108985;277;39384;-78
2023/09/27 10:51:33;;;;;;;14.70;11.50;;;;;;;26.36;51.82;101427.12;108956;277;38239;-76
2023/09/27 10:54:12;;;;;;;16.40;11.70;;;;;;;26.36;51.63;101424.70;109016;277;38756;-75
2023/09/27 10:56:52;;;;;;;16.90;10.20;;;;;;;26.29;51.00;101421.89;108502;276;563432;-77
2023/09/27 10:59:27;;;;;;;13.50;9.60;;;;;;;26.21;51.12;101420.41;108980;276;38809;-77
2023/09/27 11:02:03;;;;;;;15.60;10.10;;;;;;;26.15;50.88;101420.44;109003;276;39541;-75
2023/09/27 11:04:38;;;;;;;14.10;10.10;;;;;;;26.09;50.94;101416.80;108940;277;38330;-73
2023/09/27 11:07:17;;;;;;;13.60;9.80;;;;;;;26.06;51.42;101415.27;109015;276;38507;-77
2023/09/27 11:09:52;;;;;;;14.30;9.30;;;;;;;26.06;51.31;101412.44;108984;276;38599;-76
2023/09/27 11:12:29;;;;;;;11.90;10.60;;;;;;;26.03;51.40;101412.68;108977;276;38156;-75
2023/09/27 11:15:09;;;;;;;14.50;9.70;;;;;;;26.00;51.03;101405.64;108979;277;38918;-76
2023/09/27 11:17:45;;;;;;;14.20;9.20;;;;;;;25.96;50.80;101405.44;109037;276;39262;-75
2023/09/27 11:20:23;;;;;;;13.10;9.20;;;;;;;25.95;51.06;101402.41;108986;276;40057;-75
2023/09/27 11:23:03;;;;;;;11.60;9.20;;;;;;;25.96;50.97;101397.15;109024;277;39508;-75
2023/09/27 11:25:40;;;;;;;18.70;9.60;;;;;;;25.95;50.43;101396.06;109014;277;38304;-76
2023/09/27 11:28:19;;;;;;;13.00;8.60;;;;;;;25.92;49.82;101391.46;108963;277;39101;-76
2023/09/27 11:31:00;;;;;;;13.90;8.60;;;;;;;25.89;49.81;101390.27;109000;277;38162;-75
2023/09/27 11:33:38;;;;;;;11.40;8.40;;;;;;;25.84;49.66;101389.65;108967;277;41204;-75
2023/09/27 11:36:14;;;;;;;12.70;8.80;;;;;;;25.80;49.70;101392.00;108957;277;38305;-76
2023/09/27 11:38:53;;;;;;;14.00;8.80;;;;;;;25.75;49.46;101387.70;108937;277;40937;-75
2023/09/27 11:41:28;;;;;;;14.10;8.70;;;;;;;25.73;49.66;101384.13;108943;277;38153;-74
2023/09/27 11:44:17;;;;;;;12.90;8.90;;;;;;;25.73;49.78;101384.88;108925;277;38671;-75
2023/09/27 11:46:52;;;;;;;15.00;8.90;;;;;;;25.71;49.67;101380.88;108930;277;38280;-74
2023/09/27 11:49:35;;;;;;;10.40;7.80;;;;;;;25.71;49.67;101380.77;108899;277;38460;-76
2023/09/27 11:52:14;;;;;;;17.00;8.90;;;;;;;25.68;49.65;101375.10;108989;277;38204;-73